Time;durP1;ratioP1;P1;durP2;ratioP2;P2;SDS_P1;SDS_P2;PMS_P1;PMS_P2;Temp;Humidity;BMP_temperature;BMP_pressure;BME280_temperature;BME280_humidity;BME280_pressure;Samples;Min_cycle;Max_cycle;Signal;HPM_P1;HPM_P2
2021/07/02 00:00:19;;;;;;;1.55;0.20;;;614.60;1382.40;;;;;;5094540;28;20028;-69
2021/07/02 00:02:45;;;;;;;1.50;0.47;;;614.70;1356.80;;;;;;5094521;28;20107;-70
2021/07/02 00:05:13;;;;;;;2.58;0.40;;;614.70;1356.80;;;;;;5094427;28;20054;-70
2021/07/02 00:07:39;;;;;;;2.72;0.30;;;614.60;1356.80;;;;;;5094199;28;20023;-70
2021/07/02 00:10:07;;;;;;;1.35;0.50;;;614.70;1382.40;;;;;;5094024;28;20035;-70
2021/07/02 00:12:33;;;;;;;0.93;0.30;;;614.60;1382.40;;;;;;5094624;28;20111;-69
2021/07/02 00:14:59;;;;;;;0.93;0.30;;;614.60;1382.40;;;;;;5094073;28;20028;-70
2021/07/02 00:17:25;;;;;;;0.90;0.38;;;614.50;1382.40;;;;;;5094249;28;20031;-70
2021/07/02 00:19:51;;;;;;;1.42;0.40;;;614.50;1382.40;;;;;;5093957;28;20526;-70
2021/07/02 00:22:17;;;;;;;0.30;0.30;;;614.50;1408.00;;;;;;5093992;28;20038;-69
2021/07/02 00:24:43;;;;;;;5.93;0.85;;;614.50;1382.40;;;;;;5094119;28;20052;-70
2021/07/02 00:27:08;;;;;;;2.70;0.40;;;614.50;1382.40;;;;;;5093742;28;20119;-70
2021/07/02 00:29:34;;;;;;;2.90;0.50;;;614.40;1408.00;;;;;;5093790;28;20361;-69
2021/07/02 00:32:00;;;;;;;1.15;0.50;;;614.40;1408.00;;;;;;5092543;28;20036;-70
2021/07/02 00:34:26;;;;;;;1.23;0.30;;;614.40;1382.40;;;;;;5093756;28;20480;-70
2021/07/02 00:36:52;;;;;;;2.28;0.45;;;614.40;1433.60;;;;;;5093692;28;20119;-70
2021/07/02 00:39:18;;;;;;;3.08;0.30;;;589.60;1433.60;;;;;;5094008;28;20047;-70
2021/07/02 00:41:44;;;;;;;2.63;0.60;;;589.60;1433.60;;;;;;5093684;28;20024;-70
2021/07/02 00:44:10;;;;;;;0.40;0.30;;;589.60;1433.60;;;;;;5093756;28;20066;-70
2021/07/02 00:46:36;;;;;;;3.13;0.50;;;589.60;1433.60;;;;;;5093886;28;20089;-70
2021/07/02 00:49:02;;;;;;;0.85;0.40;;;589.50;1433.60;;;;;;5093029;28;20481;-69
2021/07/02 00:51:30;;;;;;;1.15;0.35;;;589.50;1433.60;;;;;;5093997;28;20441;-69
2021/07/02 00:53:58;;;;;;;1.70;0.30;;;589.60;1433.60;;;;;;5093773;28;20090;-69
2021/07/02 00:56:24;;;;;;;3.25;0.40;;;589.50;1408.00;;;;;;5093837;28;20051;-69
2021/07/02 00:58:50;;;;;;;0.93;0.47;;;589.50;1408.00;;;;;;5093503;28;20380;-69
2021/07/02 01:01:17;;;;;;;1.48;0.40;;;589.60;1433.60;;;;;;5093790;28;20028;-70
2021/07/02 01:03:44;;;;;;;4.40;0.52;;;589.60;1433.60;;;;;;5093610;28;20016;-70
2021/07/02 01:06:11;;;;;;;0.88;0.40;;;589.60;1433.60;;;;;;5093351;28;20032;-70
2021/07/02 01:08:38;;;;;;;3.30;0.25;;;589.40;1433.60;;;;;;5093355;28;20111;-71
2021/07/02 01:11:04;;;;;;;3.47;0.40;;;589.50;1433.60;;;;;;5092993;28;20376;-69
2021/07/02 01:13:30;;;;;;;2.88;0.45;;;589.50;1433.60;;;;;;5092045;28;20026;-70
2021/07/02 01:15:56;;;;;;;2.40;0.50;;;589.40;1459.20;;;;;;5093377;28;20028;-69
2021/07/02 01:18:22;;;;;;;1.77;0.50;;;589.20;1459.20;;;;;;5093570;28;20028;-71
2021/07/02 01:20:53;;;;;;;1.35;0.55;;;589.10;1459.20;;;;;;5093606;28;20559;-70
2021/07/02 01:23:19;;;;;;;2.15;0.50;;;589.10;1484.80;;;;;;5093017;28;20031;-70
2021/07/02 01:25:46;;;;;;;2.38;0.70;;;589.00;1459.20;;;;;;5093191;28;20040;-69
2021/07/02 01:28:13;;;;;;;2.40;0.52;;;589.20;1459.20;;;;;;5093238;28;20028;-70
2021/07/02 01:30:40;;;;;;;1.80;0.50;;;589.20;1459.20;;;;;;5092442;28;20020;-69
2021/07/02 01:33:07;;;;;;;2.30;0.50;;;589.20;1459.20;;;;;;5092470;28;20103;-69
2021/07/02 01:35:34;;;;;;;2.88;0.60;;;589.10;1459.20;;;;;;5092501;28;20044;-70
2021/07/02 01:38:00;;;;;;;1.65;0.52;;;589.10;1459.20;;;;;;5091643;28;20024;-70
2021/07/02 01:40:26;;;;;;;1.67;0.70;;;589.10;1459.20;;;;;;5093088;28;20478;-70
2021/07/02 01:42:52;;;;;;;2.70;0.73;;;589.10;1459.20;;;;;;5093383;28;20024;-70
2021/07/02 01:45:18;;;;;;;4.22;0.88;;;589.20;1459.20;;;;;;5093185;28;20472;-70
2021/07/02 01:47:44;;;;;;;3.42;0.75;;;589.20;1459.20;;;;;;5092948;28;20032;-70
2021/07/02 01:50:10;;;;;;;1.70;0.80;;;589.20;1459.20;;;;;;5093013;28;20082;-70
2021/07/02 01:52:36;;;;;;;3.78;0.85;;;589.10;1459.20;;;;;;5092990;28;20055;-70
2021/07/02 01:55:04;;;;;;;3.42;0.90;;;589.10;1459.20;;;;;;5092957;28;20020;-70
2021/07/02 01:57:30;;;;;;;2.30;0.73;;;589.20;1459.20;;;;;;5093179;28;20058;-70
2021/07/02 01:59:56;;;;;;;3.75;0.73;;;589.20;1459.20;;;;;;5092853;28;20384;-70
2021/07/02 02:02:23;;;;;;;3.88;1.00;;;589.00;1459.20;;;;;;5096276;28;20103;-70
2021/07/02 02:04:49;;;;;;;2.58;0.60;;;589.10;1459.20;;;;;;5096434;28;20422;-70
2021/07/02 02:07:15;;;;;;;2.28;0.60;;;589.00;1459.20;;;;;;5096195;28;20111;-69
2021/07/02 02:09:41;;;;;;;3.13;0.90;;;588.90;1484.80;;;;;;5096287;28;20503;-70
2021/07/02 02:12:07;;;;;;;3.28;0.80;;;588.90;1484.80;;;;;;5096098;28;20036;-70
2021/07/02 02:14:33;;;;;;;1.80;0.70;;;588.90;1459.20;;;;;;5096201;28;20094;-70
2021/07/02 02:16:59;;;;;;;0.77;0.45;;;589.00;1459.20;;;;;;5096099;28;20491;-70
2021/07/02 02:19:26;;;;;;;4.88;0.52;;;589.00;1459.20;;;;;;5096289;28;20034;-70
2021/07/02 02:21:52;;;;;;;1.38;0.70;;;589.00;1459.20;;;;;;5096343;28;20023;-70
2021/07/02 02:24:19;;;;;;;3.42;0.60;;;589.10;1459.20;;;;;;5095899;28;20056;-69
2021/07/02 02:26:45;;;;;;;2.45;0.65;;;589.00;1459.20;;;;;;5095789;28;20028;-70
2021/07/02 02:29:12;;;;;;;1.88;0.50;;;589.00;1459.20;;;;;;5095823;28;20026;-70
2021/07/02 02:31:39;;;;;;;2.28;0.60;;;588.90;1459.20;;;;;;5095813;28;20028;-70
2021/07/02 02:34:05;;;;;;;2.10;0.50;;;588.90;1459.20;;;;;;5095794;28;20016;-70
2021/07/02 02:36:31;;;;;;;3.00;0.60;;;589.00;1459.20;;;;;;5095716;28;20020;-70
2021/07/02 02:38:56;;;;;;;4.25;0.50;;;588.90;1484.80;;;;;;5095695;28;20430;-70
2021/07/02 02:41:23;;;;;;;1.50;0.47;;;588.80;1484.80;;;;;;5095510;28;20073;-70
2021/07/02 02:43:49;;;;;;;3.70;0.60;;;588.90;1484.80;;;;;;5095527;28;20028;-70
2021/07/02 02:46:16;;;;;;;3.47;0.70;;;588.80;1484.80;;;;;;5095486;28;20063;-69
2021/07/02 02:48:41;;;;;;;4.13;0.70;;;588.80;1484.80;;;;;;5095455;28;20464;-70
2021/07/02 02:51:07;;;;;;;3.45;0.63;;;588.80;1484.80;;;;;;5095384;28;20024;-70
2021/07/02 02:53:33;;;;;;;0.93;0.45;;;588.80;1484.80;;;;;;5095643;28;20024;-70
2021/07/02 02:55:59;;;;;;;2.72;0.40;;;588.80;1484.80;;;;;;5095611;28;20502;-70
2021/07/02 02:58:25;;;;;;;0.77;0.50;;;588.80;1484.80;;;;;;5095630;28;20364;-69
2021/07/02 03:00:51;;;;;;;1.05;0.50;;;588.80;1484.80;;;;;;5095413;28;20028;-70
2021/07/02 03:03:17;;;;;;;0.88;0.57;;;564.10;1484.80;;;;;;5095456;28;20189;-69
2021/07/02 03:05:43;;;;;;;3.65;0.50;;;564.10;1484.80;;;;;;5095496;28;20050;-70
2021/07/02 03:08:08;;;;;;;3.58;0.43;;;564.10;1510.40;;;;;;5095483;28;20103;-70
2021/07/02 03:10:34;;;;;;;0.43;0.30;;;564.00;1510.40;;;;;;5095514;28;20021;-69
2021/07/02 03:13:01;;;;;;;2.50;0.50;;;564.00;1510.40;;;;;;5094578;28;20020;-70
2021/07/02 03:15:27;;;;;;;1.40;0.57;;;564.00;1510.40;;;;;;5094927;28;20032;-70
2021/07/02 03:17:53;;;;;;;2.60;0.60;;;564.00;1536.00;;;;;;5095183;28;20046;-70
2021/07/02 03:20:19;;;;;;;1.95;0.57;;;563.90;1536.00;;;;;;5094860;28;20041;-70
2021/07/02 03:22:45;;;;;;;5.88;0.43;;;563.90;1536.00;;;;;;5095133;28;20466;-69
2021/07/02 03:25:12;;;;;;;2.65;0.57;;;563.90;1536.00;;;;;;5094603;28;20095;-70
2021/07/02 03:27:38;;;;;;;2.47;0.50;;;563.90;1510.40;;;;;;5094733;28;20078;-69
2021/07/02 03:30:10;;;;;;;1.35;0.50;;;563.80;1536.00;;;;;;5094712;28;20031;-70
2021/07/02 03:32:36;;;;;;;3.33;0.70;;;563.80;1536.00;;;;;;5094892;28;20164;-70
2021/07/02 03:35:04;;;;;;;1.85;0.43;;;563.70;1510.40;;;;;;5094917;28;20139;-70
2021/07/02 03:37:30;;;;;;;3.42;0.50;;;563.60;1536.00;;;;;;5094479;28;20032;-70
2021/07/02 03:39:56;;;;;;;2.08;0.60;;;563.60;1536.00;;;;;;5094785;28;20357;-70
2021/07/02 03:42:22;;;;;;;2.03;0.70;;;563.50;1536.00;;;;;;5094657;28;20016;-70
2021/07/02 03:44:49;;;;;;;19.27;1.48;;;563.50;1510.40;;;;;;5094644;28;20020;-70
2021/07/02 03:47:15;;;;;;;52.17;2.80;;;563.50;1510.40;;;;;;5094289;28;20036;-70
2021/07/02 03:49:42;;;;;;;34.08;2.03;;;563.50;1510.40;;;;;;5094832;28;20065;-70
2021/07/02 03:52:08;;;;;;;7.88;0.95;;;563.50;1536.00;;;;;;5094212;28;20024;-70
2021/07/02 03:54:34;;;;;;;19.83;1.45;;;563.50;1510.40;;;;;;5094239;28;20107;-70
2021/07/02 03:57:12;;;;;;;14.23;0.90;;;563.60;1536.00;;;;;;5094157;28;20062;-70
2021/07/02 03:59:43;;;;;;;15.20;1.20;;;563.50;1536.00;;;;;;5094180;28;20551;-69
2021/07/02 04:02:10;;;;;;;20.45;1.25;;;563.30;1536.00;;;;;;5094703;28;20114;-70
2021/07/02 04:04:37;;;;;;;13.07;1.05;;;563.40;1536.00;;;;;;5093990;28;20030;-70
2021/07/02 04:07:05;;;;;;;6.05;1.08;;;563.50;1536.00;;;;;;5093898;28;20124;-70
2021/07/02 04:09:31;;;;;;;25.15;1.48;;;563.50;1536.00;;;;;;5094269;28;20028;-70
2021/07/02 04:11:58;;;;;;;8.23;0.73;;;563.40;1536.00;;;;;;5092616;28;20024;-70
2021/07/02 04:14:24;;;;;;;5.50;0.80;;;563.30;1536.00;;;;;;5093807;28;20085;-69
2021/07/02 04:16:50;;;;;;;19.25;1.50;;;563.30;1536.00;;;;;;5094132;28;20020;-70
2021/07/02 04:19:15;;;;;;;10.52;0.90;;;563.40;1536.00;;;;;;5094089;28;20380;-70
2021/07/02 04:21:41;;;;;;;8.30;0.93;;;563.40;1536.00;;;;;;5093868;28;20049;-70
2021/07/02 04:24:07;;;;;;;30.27;2.40;;;563.50;1510.40;;;;;;5092928;28;20050;-70
2021/07/02 04:26:33;;;;;;;26.55;1.77;;;563.60;1536.00;;;;;;5092366;28;20059;-70
2021/07/02 04:28:59;;;;;;;13.07;0.90;;;563.50;1536.00;;;;;;5093976;28;20481;-70
2021/07/02 04:31:25;;;;;;;9.25;0.80;;;563.40;1536.00;;;;;;5093561;28;20028;-70
2021/07/02 04:33:51;;;;;;;11.50;0.98;;;563.50;1510.40;;;;;;5093643;28;20023;-70
2021/07/02 04:36:17;;;;;;;6.45;0.90;;;563.50;1536.00;;;;;;5093796;28;20492;-70
2021/07/02 04:38:43;;;;;;;8.82;1.00;;;563.50;1536.00;;;;;;5093853;28;20020;-69
2021/07/02 04:41:10;;;;;;;9.68;1.42;;;563.50;1536.00;;;;;;5093503;28;20021;-70
2021/07/02 04:43:36;;;;;;;22.42;1.63;;;563.60;1536.00;;;;;;5093461;28;20020;-70
2021/07/02 04:46:02;;;;;;;43.53;2.35;;;563.60;1536.00;;;;;;5093674;28;20035;-70
2021/07/02 04:48:28;;;;;;;14.63;1.20;;;563.60;1510.40;;;;;;5093416;28;20020;-70
2021/07/02 04:50:54;;;;;;;14.30;1.17;;;563.70;1510.40;;;;;;5093393;28;20027;-70
2021/07/02 04:53:21;;;;;;;14.13;1.10;;;563.80;1510.40;;;;;;5093646;28;20028;-70
2021/07/02 04:55:47;;;;;;;9.18;1.13;;;563.80;1510.40;;;;;;5093430;28;20044;-70
2021/07/02 04:58:16;;;;;;;24.25;1.33;;;563.70;1510.40;;;;;;5093709;28;20024;-70
2021/07/02 05:00:42;;;;;;;4.80;0.80;;;563.70;1536.00;;;;;;5093391;28;20534;-69
2021/07/02 05:03:08;;;;;;;20.23;1.80;;;563.60;1536.00;;;;;;5093297;28;20055;-70
2021/07/02 05:05:36;;;;;;;11.63;1.35;;;563.60;1536.00;;;;;;5093263;28;20024;-70
2021/07/02 05:08:02;;;;;;;2.70;0.85;;;563.60;1536.00;;;;;;5093152;28;20103;-70
2021/07/02 05:10:28;;;;;;;7.38;0.85;;;563.60;1536.00;;;;;;5093214;28;20020;-70
2021/07/02 05:12:54;;;;;;;1.63;0.93;;;563.60;1536.00;;;;;;5093259;28;20072;-70
2021/07/02 05:15:20;;;;;;;3.97;1.25;;;563.50;1561.60;;;;;;5093097;28;20027;-70
2021/07/02 05:17:46;;;;;;;1.60;0.70;;;563.50;1561.60;;;;;;5093185;28;20025;-70
2021/07/02 05:20:12;;;;;;;7.47;1.08;;;563.40;1561.60;;;;;;5093488;28;20107;-70
2021/07/02 05:22:38;;;;;;;5.63;1.50;;;563.50;1561.60;;;;;;5093172;28;20059;-70
2021/07/02 05:25:06;;;;;;;1.80;0.80;;;563.50;1561.60;;;;;;5092808;28;20094;-70
2021/07/02 05:27:32;;;;;;;24.60;1.60;;;563.50;1561.60;;;;;;5093344;28;20040;-70
2021/07/02 05:29:59;;;;;;;10.45;1.08;;;563.50;1561.60;;;;;;5092975;28;20035;-71
2021/07/02 05:32:25;;;;;;;9.35;1.65;;;563.50;1561.60;;;;;;5092949;28;20029;-70
2021/07/02 05:34:50;;;;;;;14.00;1.27;;;563.60;1561.60;;;;;;5093835;28;20020;-70
2021/07/02 05:37:16;;;;;;;4.72;0.80;;;563.60;1561.60;;;;;;5096937;28;20028;-69
2021/07/02 05:39:42;;;;;;;16.67;1.30;;;563.70;1561.60;;;;;;5097410;28;20028;-70
2021/07/02 05:42:08;;;;;;;15.88;1.63;;;563.70;1561.60;;;;;;5096930;28;20024;-70
2021/07/02 05:44:34;;;;;;;1.80;0.95;;;563.70;1561.60;;;;;;5097232;28;20111;-70
2021/07/02 05:47:00;;;;;;;4.68;0.95;;;563.80;1536.00;;;;;;5096806;28;20040;-70
2021/07/02 05:49:26;;;;;;;24.52;1.85;;;563.80;1536.00;;;;;;5096525;28;20390;-70
2021/07/02 05:51:52;;;;;;;4.70;1.27;;;563.70;1561.60;;;;;;5096695;28;20034;-70
2021/07/02 05:54:18;;;;;;;5.20;0.70;;;563.80;1536.00;;;;;;5096699;28;20021;-70
2021/07/02 05:56:46;;;;;;;3.58;0.80;;;563.80;1536.00;;;;;;5096622;28;20032;-70
2021/07/02 05:59:12;;;;;;;5.65;0.90;;;563.80;1536.00;;;;;;5096648;28;20043;-70
2021/07/02 06:01:41;;;;;;;8.68;1.10;;;563.80;1536.00;;;;;;5095826;28;20024;-70
2021/07/02 06:04:07;;;;;;;7.65;1.17;;;563.90;1536.00;;;;;;5095805;28;20028;-70
2021/07/02 06:06:33;;;;;;;5.47;1.30;;;564.00;1536.00;;;;;;5093202;28;20062;-70
2021/07/02 06:08:59;;;;;;;2.33;0.73;;;564.10;1536.00;;;;;;5095753;28;20474;-70
2021/07/02 06:11:25;;;;;;;2.00;0.70;;;564.10;1510.40;;;;;;5095736;28;20020;-71
2021/07/02 06:13:51;;;;;;;7.28;1.13;;;564.10;1510.40;;;;;;5095648;28;20062;-71
2021/07/02 06:16:17;;;;;;;5.47;0.82;;;588.80;1510.40;;;;;;5095646;28;20488;-69
2021/07/02 06:18:43;;;;;;;8.40;0.93;;;588.90;1484.80;;;;;;5095741;28;20020;-69
2021/07/02 06:21:09;;;;;;;6.95;0.77;;;588.90;1510.40;;;;;;5095607;28;20072;-70
2021/07/02 06:23:35;;;;;;;7.30;1.60;;;588.80;1510.40;;;;;;5095609;28;20043;-70
2021/07/02 06:26:02;;;;;;;8.20;1.23;;;588.90;1510.40;;;;;;5096203;28;20376;-70
2021/07/02 06:28:29;;;;;;;8.52;2.17;;;588.90;1510.40;;;;;;5096114;28;20546;-72
2021/07/02 06:30:55;;;;;;;6.28;0.93;;;589.00;1510.40;;;;;;5095555;28;20028;-70
2021/07/02 06:33:22;;;;;;;2.63;0.63;;;589.10;1484.80;;;;;;5095819;28;20028;-71
2021/07/02 06:35:49;;;;;;;3.22;1.08;;;589.20;1484.80;;;;;;5095807;28;20392;-70
2021/07/02 06:38:19;;;;;;;9.35;1.00;;;589.30;1459.20;;;;;;5096047;28;20107;-70
2021/07/02 06:40:46;;;;;;;13.25;1.33;;;589.40;1459.20;;;;;;5095856;28;20028;-70
2021/07/02 06:43:12;;;;;;;18.63;1.60;;;589.60;1459.20;;;;;;5095699;28;20020;-70
2021/07/02 06:45:38;;;;;;;2.88;1.25;;;589.70;1459.20;;;;;;5095768;28;20495;-70
2021/07/02 06:48:05;;;;;;;3.53;1.38;;;614.40;1433.60;;;;;;5094730;28;20032;-69
2021/07/02 06:50:34;;;;;;;1.73;0.77;;;614.60;1408.00;;;;;;5095731;28;20419;-70
2021/07/02 06:53:02;;;;;;;4.00;0.70;;;614.70;1408.00;;;;;;5095715;28;20483;-70
2021/07/02 06:55:28;;;;;;;3.72;1.10;;;614.70;1382.40;;;;;;5095440;28;20020;-70
2021/07/02 06:57:54;;;;;;;8.07;2.90;;;614.90;1382.40;;;;;;5094077;28;20052;-70
2021/07/02 07:00:21;;;;;;;5.53;1.13;;;614.90;1382.40;;;;;;5095307;28;20412;-70
2021/07/02 07:02:48;;;;;;;14.48;1.88;;;614.90;1356.80;;;;;;5095618;28;20384;-70
2021/07/02 07:05:14;;;;;;;3.63;0.80;;;615.00;1356.80;;;;;;5095200;28;20058;-69
2021/07/02 07:07:41;;;;;;;5.63;1.10;;;615.10;1356.80;;;;;;5095163;28;20476;-69
2021/07/02 07:10:08;;;;;;;1.73;0.63;;;615.10;1356.80;;;;;;5095120;28;20075;-71
2021/07/02 07:12:35;;;;;;;2.08;1.00;;;615.20;1356.80;;;;;;5095308;28;20032;-70
2021/07/02 07:15:01;;;;;;;1.55;0.88;;;615.30;1356.80;;;;;;5095045;28;20376;-70
2021/07/02 07:17:27;;;;;;;1.52;0.80;;;640.00;1331.20;;;;;;5093725;28;20131;-71
2021/07/02 07:19:53;;;;;;;2.35;0.73;;;640.10;1305.60;;;;;;5095224;28;20229;-71
2021/07/02 07:22:19;;;;;;;2.28;0.90;;;640.20;1305.60;;;;;;5094848;28;20031;-70
2021/07/02 07:24:45;;;;;;;3.78;0.98;;;640.30;1305.60;;;;;;5094718;28;20040;-70
2021/07/02 07:27:11;;;;;;;5.22;2.08;;;640.30;1305.60;;;;;;5094746;28;20028;-73
2021/07/02 07:29:38;;;;;;;6.18;2.90;;;640.30;1305.60;;;;;;5094096;28;20036;-70
2021/07/02 07:32:04;;;;;;;3.20;1.10;;;640.10;1305.60;;;;;;5094540;28;20545;-71
2021/07/02 07:34:48;;;;;;;6.28;2.97;;;640.30;1305.60;;;;;;5094670;28;20059;-70
2021/07/02 07:37:19;;;;;;;4.60;1.80;;;640.30;1305.60;;;;;;5094616;28;20028;-70
2021/07/02 07:39:47;;;;;;;2.83;1.92;;;640.30;1280.00;;;;;;5094820;28;20380;-70
2021/07/02 07:42:13;;;;;;;5.72;1.30;;;640.30;1280.00;;;;;;5094515;28;20022;-70
2021/07/02 07:44:39;;;;;;;1.33;0.80;;;640.30;1305.60;;;;;;5094373;28;20035;-70
2021/07/02 07:47:05;;;;;;;1.63;0.85;;;640.30;1305.60;;;;;;5094714;28;20081;-70
2021/07/02 07:49:31;;;;;;;5.28;0.63;;;640.40;1280.00;;;;;;5095264;28;20056;-70
2021/07/02 07:54:23;;;;;;;5.55;1.48;;;640.50;1280.00;;;;;;5094406;28;20024;-70
2021/07/02 07:56:51;;;;;;;12.88;11.10;;;640.60;1280.00;;;;;;5094327;28;20024;-70
2021/07/02 07:59:22;;;;;;;2.63;1.20;;;640.60;1280.00;;;;;;5093047;28;20024;-70
2021/07/02 08:01:49;;;;;;;16.42;1.58;;;640.60;1280.00;;;;;;5094657;28;20529;-70
2021/07/02 08:04:15;;;;;;;4.18;0.90;;;640.60;1254.40;;;;;;5094322;28;20103;-70
2021/07/02 08:06:42;;;;;;;5.07;0.85;;;640.60;1254.40;;;;;;5094100;28;20123;-70
2021/07/02 08:09:08;;;;;;;1.45;0.93;;;640.60;1254.40;;;;;;5094154;28;20029;-70
2021/07/02 08:11:34;;;;;;;6.18;1.30;;;640.60;1280.00;;;;;;5094089;28;20024;-70
2021/07/02 08:14:00;;;;;;;3.20;1.25;;;640.60;1280.00;;;;;;5094067;28;20074;-71
2021/07/02 08:16:26;;;;;;;14.23;1.42;;;640.70;1254.40;;;;;;5092830;28;20031;-70
2021/07/02 08:18:52;;;;;;;9.02;1.30;;;640.70;1254.40;;;;;;5093970;28;20149;-70
2021/07/02 08:21:19;;;;;;;6.63;1.05;;;640.60;1254.40;;;;;;5093846;28;20055;-70
2021/07/02 08:23:45;;;;;;;1.83;0.95;;;640.60;1254.40;;;;;;5092908;28;20040;-70
2021/07/02 08:26:14;;;;;;;7.40;2.58;;;640.70;1254.40;;;;;;5093280;28;20427;-70
2021/07/02 08:31:26;;;;;;;2.90;0.98;;;640.80;1254.40;;;;;;5094040;28;20023;-72
2021/07/02 08:33:52;;;;;;;4.47;0.82;;;640.90;1228.80;;;;;;5093622;28;20020;-72
2021/07/02 08:36:18;;;;;;;8.02;1.15;;;640.90;1203.20;;;;;;5093845;28;20047;-71
2021/07/02 08:38:44;;;;;;;10.35;8.13;;;640.80;1228.80;;;;;;5093548;28;20115;-71
2021/07/02 08:41:13;;;;;;;8.35;1.15;;;640.80;1228.80;;;;;;5093463;28;20107;-70
2021/07/02 08:43:45;;;;;;;1.58;0.65;;;640.80;1228.80;;;;;;5093327;28;20430;-72
2021/07/02 08:46:16;;;;;;;3.10;1.33;;;640.80;1228.80;;;;;;5093214;28;20032;-70
2021/07/02 08:48:45;;;;;;;2.17;1.10;;;640.90;1203.20;;;;;;5092903;28;20379;-71
2021/07/02 08:51:11;;;;;;;10.70;1.13;;;665.60;1254.40;;;;;;5093319;28;20051;-71
2021/07/02 08:53:39;;;;;;;16.60;1.60;;;640.80;1203.20;;;;;;5093489;28;20020;-71
2021/07/02 08:56:05;;;;;;;9.40;0.98;;;640.80;1203.20;;;;;;5091649;28;20494;-71
2021/07/02 08:58:32;;;;;;;11.75;1.00;;;640.80;1228.80;;;;;;5092771;28;20149;-71
2021/07/02 09:00:58;;;;;;;13.00;3.42;;;640.70;1203.20;;;;;;5091750;28;20372;-71
2021/07/02 09:03:33;;;;;;;6.13;1.40;;;640.80;1203.20;;;;;;5091505;28;20061;-71
2021/07/02 09:06:07;;;;;;;23.63;2.35;;;640.80;1203.20;;;;;;5091238;28;20111;-71
2021/07/02 09:08:34;;;;;;;8.98;1.45;;;640.70;1228.80;;;;;;5091223;28;20114;-71
2021/07/02 09:11:01;;;;;;;15.43;1.30;;;640.60;1228.80;;;;;;5095843;28;20373;-70
2021/07/02 09:13:43;;;;;;;15.50;1.40;;;640.70;1203.20;;;;;;5097268;28;20119;-71
2021/07/02 09:16:36;;;;;;;13.90;1.80;;;640.70;1228.80;;;;;;5097010;28;20016;-72
2021/07/02 09:19:21;;;;;;;15.00;1.50;;;640.70;1203.20;;;;;;5096187;28;20029;-71
2021/07/02 09:21:48;;;;;;;17.85;1.90;;;640.70;1254.40;;;;;;5097408;28;20028;-73
2021/07/02 09:24:37;;;;;;;45.53;4.38;;;640.70;1203.20;;;;;;5097226;28;20040;-72
2021/07/02 09:27:22;;;;;;;21.23;2.05;;;640.80;1203.20;;;;;;5097472;28;20036;-72
2021/07/02 09:30:08;;;;;;;16.83;1.60;;;640.80;1203.20;;;;;;5097275;28;20031;-72
2021/07/02 09:32:43;;;;;;;12.95;1.30;;;640.70;1203.20;;;;;;5097110;28;20031;-72
2021/07/02 09:35:09;;;;;;;8.82;1.13;;;640.80;1228.80;;;;;;5096636;28;20042;-72
2021/07/02 09:37:44;;;;;;;5.57;2.05;;;640.90;1203.20;;;;;;5094002;28;20112;-71
2021/07/02 09:40:14;;;;;;;3.78;1.60;;;640.80;1203.20;;;;;;5096419;28;20020;-71
2021/07/02 09:42:43;;;;;;;5.85;1.15;;;640.90;1203.20;;;;;;5096428;28;20035;-72
2021/07/02 09:45:10;;;;;;;5.95;1.50;;;665.70;1203.20;;;;;;5096695;28;20012;-69
2021/07/02 09:47:37;;;;;;;11.32;2.17;;;665.70;1228.80;;;;;;5093763;28;20430;-71
2021/07/02 09:50:20;;;;;;;1.55;0.70;;;665.70;1177.60;;;;;;5096280;28;20460;-72
2021/07/02 09:52:49;;;;;;;1.63;0.90;;;640.90;1152.00;;;;;;5095418;28;20124;-72
2021/07/02 09:55:16;;;;;;;1.70;1.00;;;665.60;1228.80;;;;;;5093845;28;20044;-72
2021/07/02 09:57:42;;;;;;;6.60;1.80;;;665.80;1203.20;;;;;;5096479;28;20027;-72
2021/07/02 10:00:11;;;;;;;3.15;1.25;;;665.80;1203.20;;;;;;5096291;28;20023;-72
2021/07/02 10:02:38;;;;;;;3.90;1.42;;;665.80;1203.20;;;;;;5094199;28;20027;-72
2021/07/02 10:05:05;;;;;;;8.57;0.88;;;665.80;1203.20;;;;;;5096542;28;20032;-72
2021/07/02 10:07:33;;;;;;;1.70;0.57;;;665.80;1203.20;;;;;;5095140;28;20043;-72
2021/07/02 10:09:59;;;;;;;10.32;1.00;;;665.80;1177.60;;;;;;5096110;28;20047;-71
2021/07/02 10:12:25;;;;;;;20.25;1.50;;;665.80;1177.60;;;;;;5095893;28;20034;-71
2021/07/02 10:14:52;;;;;;;32.22;5.82;;;665.80;1203.20;;;;;;5095750;28;20024;-71
2021/07/02 10:17:19;;;;;;;17.10;1.50;;;665.80;1203.20;;;;;;5095841;28;20039;-72
2021/07/02 10:19:48;;;;;;;101.80;4.65;;;665.80;1203.20;;;;;;5095805;28;20028;-72
2021/07/02 10:22:18;;;;;;;6.55;0.70;;;665.80;1203.20;;;;;;5094983;28;20119;-71
2021/07/02 10:24:48;;;;;;;9.18;1.83;;;665.90;1177.60;;;;;;5095828;28;20064;-71
2021/07/02 10:27:15;;;;;;;12.77;1.45;;;666.00;1177.60;;;;;;5095829;28;20567;-70
2021/07/02 10:29:42;;;;;;;52.83;4.35;;;666.00;1203.20;;;;;;5096385;28;20020;-70
2021/07/02 10:32:10;;;;;;;25.35;2.40;;;666.00;1177.60;;;;;;5094621;28;20028;-71
2021/07/02 10:34:38;;;;;;;13.38;1.23;;;666.00;1177.60;;;;;;5095841;28;20432;-70
2021/07/02 10:37:05;;;;;;;164.38;8.82;;;665.90;1177.60;;;;;;5095711;28;20024;-70
2021/07/02 10:39:33;;;;;;;40.63;2.90;;;665.80;1152.00;;;;;;5095721;28;20035;-70
2021/07/02 10:42:11;;;;;;;4.03;1.50;;;665.80;1203.20;;;;;;5095636;28;20106;-70
2021/07/02 10:44:52;;;;;;;9.93;1.38;;;665.80;1152.00;;;;;;5095869;28;20055;-70
2021/07/02 10:47:18;;;;;;;17.55;2.00;;;665.70;1177.60;;;;;;5095496;28;20128;-71
2021/07/02 10:49:44;;;;;;;16.63;2.60;;;665.70;1177.60;;;;;;5095711;28;20158;-70
2021/07/02 10:52:23;;;;;;;4.28;0.93;;;665.60;1203.20;;;;;;5095956;28;20066;-71
2021/07/02 10:54:51;;;;;;;35.50;21.35;;;665.60;1203.20;;;;;;5095208;28;20028;-70
2021/07/02 10:57:18;;;;;;;14.13;8.93;;;665.60;1203.20;;;;;;5095115;28;20036;-70
2021/07/02 10:59:53;;;;;;;9.93;3.15;;;665.70;1203.20;;;;;;5095537;28;20514;-69
2021/07/02 11:02:23;;;;;;;13.75;8.45;;;665.70;1177.60;;;;;;5095550;28;20102;-69
2021/07/02 11:04:57;;;;;;;16.05;10.88;;;665.70;1177.60;;;;;;5095458;28;20031;-69
2021/07/02 11:07:26;;;;;;;7.20;2.80;;;665.70;1177.60;;;;;;5095573;28;20118;-69
2021/07/02 11:09:52;;;;;;;2.42;0.75;;;665.70;1177.60;;;;;;5094995;28;20043;-70
2021/07/02 11:12:21;;;;;;;4.78;1.40;;;665.70;1203.20;;;;;;5095266;28;20074;-70
2021/07/02 11:14:57;;;;;;;6.32;2.80;;;665.70;1177.60;;;;;;5095189;28;20020;-69
2021/07/02 11:17:38;;;;;;;11.60;4.55;;;665.80;1203.20;;;;;;5095713;28;20024;-69
2021/07/02 11:20:07;;;;;;;8.35;4.03;;;666.00;1177.60;;;;;;5092136;28;20113;-69
2021/07/02 11:22:43;;;;;;;6.38;2.90;;;666.10;1177.60;;;;;;5094954;28;20375;-69
2021/07/02 11:25:10;;;;;;;4.50;0.95;;;666.20;1152.00;;;;;;5094874;28;20048;-69
2021/07/02 11:27:43;;;;;;;1.13;0.70;;;666.20;1126.40;;;;;;5095015;28;20028;-69
2021/07/02 11:30:24;;;;;;;1.75;1.10;;;666.20;1100.80;;;;;;5094982;28;20468;-70
2021/07/02 11:33:01;;;;;;;5.38;1.38;;;666.30;1126.40;;;;;;5095099;28;20380;-69
2021/07/02 11:36:06;;;;;;;6.22;0.70;;;666.30;1126.40;;;;;;5095043;28;20027;-69
2021/07/02 11:38:32;;;;;;;6.32;1.40;;;666.20;1126.40;;;;;;5093216;28;20050;-70
2021/07/02 11:41:04;;;;;;;7.18;1.85;;;666.10;1126.40;;;;;;5094412;28;20017;-70
2021/07/02 11:43:35;;;;;;;4.57;1.70;;;666.10;1100.80;;;;;;5094605;28;20031;-71
2021/07/02 11:46:13;;;;;;;9.50;1.75;;;666.10;1126.40;;;;;;5095009;28;20035;-70
2021/07/02 11:48:40;;;;;;;6.18;1.50;;;666.10;1126.40;;;;;;5094539;28;20443;-70
2021/07/02 11:51:17;;;;;;;35.03;2.08;;;666.00;1100.80;;;;;;5094420;28;20404;-70
2021/07/02 11:53:44;;;;;;;11.55;1.40;;;666.00;1100.80;;;;;;5094537;28;20077;-70
2021/07/02 11:56:18;;;;;;;5.93;1.30;;;665.80;1100.80;;;;;;5094695;28;20379;-70
2021/07/02 11:58:55;;;;;;;4.15;1.02;;;665.90;1100.80;;;;;;5094270;28;20028;-70
2021/07/02 12:01:26;;;;;;;3.30;1.20;;;665.90;1100.80;;;;;;5094340;28;20024;-70
2021/07/02 12:03:55;;;;;;;6.75;1.20;;;666.00;1100.80;;;;;;5094243;28;20024;-70
2021/07/02 12:06:31;;;;;;;5.10;1.20;;;666.10;1126.40;;;;;;5094217;28;20395;-70
2021/07/02 12:09:03;;;;;;;17.65;4.25;;;666.30;1126.40;;;;;;5094840;28;20051;-69
2021/07/02 12:11:50;;;;;;;10.40;4.43;;;666.50;1100.80;;;;;;5094217;28;20028;-70
2021/07/02 12:14:25;;;;;;;12.02;1.40;;;691.20;1100.80;;;;;;5094156;28;20019;-70
2021/07/02 12:16:52;;;;;;;13.23;5.47;;;691.40;1075.20;;;;;;5093967;28;20043;-70
2021/07/02 12:19:21;;;;;;;16.67;5.65;;;691.40;1100.80;;;;;;5094018;28;20061;-70
2021/07/02 12:21:56;;;;;;;56.30;38.88;;;691.40;1100.80;;;;;;5093594;28;20028;-70
2021/07/02 12:24:30;;;;;;;5.85;2.60;;;691.40;1075.20;;;;;;5091127;28;20031;-70